Portada
METAR-TAF:

METAR-TAF

Aeroports :

Kangiqsualujjuaq, Quebec, Canadà

latitud: 58-43N, longitud: 065-59W, altitud: 60 m

Observació

L'informe es va fer fa 3 hores i 21 minuts, a les 21:00 UTC
Vent 3 kt del Sud-Est, variant entre Est/Nord-Est i Sud
Temperatura -1°C
Humitat 86%
Pressió 1023 hPa
Visibilitat: 24.1 km
Escasses núvols a una alçada de 2900 ft
Cel ennuvolat a una alçada de 5000 ft
Cel cobert a una alçada de 5700 ft

METAR: CYLU 212100Z 14003KT 070V180 15SM FEW029 BKN050 OVC057 M01/M03 A3020 RMK SC2SC5SC1 SNW CVR/ONE LOOSE LAST STFD OBS/NEXT 221200 UTC SLP234

Hora: 20:21 (00:21 UTC)


TAF: manca

Observacions i pronòstics meteorològics de més de 4000 aeroports (METAR i TAF).

Les estacions disponibles són els punts grocs i vermells al mapa.

Posi el ratolí al punt desitjat per veure el nom de l'estació.

Feu clic per veure les observacions i els pronòstics meteorològics.

Per canviar el mapa: feu clic els botons verds amb una creu de color negre per apropar; al botó verd amb un guió per allunyar la imatge; o en les fletxes verdes per a mapes adjacents.


METAR-TAF: